Brian O'daniels — WDD7438 — position and weather

sailwx.info

Track history (hours):
 
Tides and Currents Weather Stations Pressure Air Temp Water Temp Dewpoint Dewpoint Depression Visibility Wind Speed Wind Dir Waves Ship Positions

Brian O'daniels

Owner: Florida Marine, LLC, Mandeville, LA. More information available from US FCC via Universal Licensing System and Coast Guard Vessel Documentation Center.

Last reported at 2018-Jun-15 18:19 UTC. Time now 2018-Jun-18 00:15 UTC.
Position N 29°42' W 095°01'.

Length 26 m; draft 3 m.

Type: Towing. MMSI: 367186410.

Date/timePositionNaut miles runAvg speedWind from/ knotsBaromVisibWave heightAir tempDewpointWater temp
2018-Jun-15 18:19N 29°42' W 095°01'2 5.6
2018-Jun-15 18:00N 29°41' W 094°59'3 5.7
2018-Jun-15 17:30N 29°39' W 094°58'4 6.5
2018-Jun-15 16:56N 29°35' W 094°56'14 7.1
2018-Jun-15 15:00N 29°23' W 094°49'2 3.6
2018-Jun-15 14:30N 29°22' W 094°50'2 3.3
2018-Jun-15 14:01N 29°23' W 094°52'0 0.0
2018-Jun-15 13:30N 29°23' W 094°52'0 0.0
2018-Jun-15 13:00N 29°23' W 094°52'0 0.0
2018-Jun-15 12:30N 29°23' W 094°52'0 0.0
2018-Jun-15 12:00N 29°23' W 094°52'0 0.0
2018-Jun-15 11:30N 29°23' W 094°52'0 0.0
2018-Jun-15 11:00N 29°23' W 094°52'0 0.0
2018-Jun-15 10:30N 29°23' W 094°52'0 0.0
2018-Jun-15 09:54N 29°23' W 094°52'0 0.0
2018-Jun-15 09:30N 29°23' W 094°52'0 0.0
2018-Jun-15 09:00N 29°23' W 094°52'0 0.0
2018-Jun-15 08:30N 29°23' W 094°52'0 0.1
2018-Jun-15 07:59N 29°23' W 094°52'1 1.1
2018-Jun-15 07:30N 29°23' W 094°53'1 1.5
2018-Jun-15 06:58N 29°22' W 094°53'0 0.0
2018-Jun-15 06:25N 29°22' W 094°53'0 0.0
2018-Jun-15 05:58N 29°22' W 094°53'0 0.0
2018-Jun-15 05:28N 29°22' W 094°53'0 0.0
2018-Jun-15 04:58N 29°22' W 094°53'0 0.0
2018-Jun-15 04:28N 29°22' W 094°53'0 0.0
2018-Jun-15 03:58N 29°22' W 094°53'0 0.0
2018-Jun-15 03:28N 29°22' W 094°53'0 0.0
2018-Jun-15 02:58N 29°22' W 094°53'0 0.0
2018-Jun-15 02:28N 29°22' W 094°53'0 0.0
2018-Jun-15 01:58N 29°22' W 094°53'0 0.0
2018-Jun-15 01:28N 29°22' W 094°53'0 0.0
2018-Jun-15 00:58N 29°22' W 094°53'0 0.0
2018-Jun-15 00:28N 29°22' W 094°53'0 0.0
2018-Jun-14 23:58N 29°22' W 094°53'0 0.0
2018-Jun-14 23:28N 29°22' W 094°53'0 0.0
2018-Jun-14 22:52N 29°22' W 094°53'0 0.0
2018-Jun-14 22:28N 29°22' W 094°53'0 0.0
2018-Jun-14 21:58N 29°22' W 094°53'0 0.0
2018-Jun-14 21:28N 29°22' W 094°53'0 0.0
2018-Jun-14 20:58N 29°22' W 094°53'0 0.0
2018-Jun-14 20:28N 29°22' W 094°53'0 0.0
2018-Jun-14 19:58N 29°22' W 094°53'0 0.0
2018-Jun-14 19:28N 29°22' W 094°53'0 0.0
2018-Jun-14 18:58N 29°22' W 094°53'0 0.0
2018-Jun-14 18:28N 29°22' W 094°53'0 0.0
2018-Jun-14 17:40N 29°22' W 094°53'0 0.0
2018-Jun-14 17:10N 29°22' W 094°53'0 0.0
2018-Jun-14 16:37N 29°22' W 094°53'0 0.0
2018-Jun-14 16:16N 29°22' W 094°53'0 0.0
2018-Jun-14 15:31N 29°22' W 094°53'0 0.0
2018-Jun-14 15:19N 29°22' W 094°53'0 0.0
2018-Jun-14 14:52N 29°22' W 094°53'0 0.0
2018-Jun-14 14:28N 29°22' W 094°53'0 0.0
2018-Jun-14 13:58N 29°22' W 094°53'0 0.0
2018-Jun-14 13:25N 29°22' W 094°53'0 0.0
2018-Jun-14 12:52N 29°22' W 094°53'0 0.0
2018-Jun-14 12:28N 29°22' W 094°53'0 0.0
2018-Jun-14 11:58N 29°22' W 094°53'0 0.0
2018-Jun-14 11:25N 29°22' W 094°53'0 0.0
2018-Jun-14 10:58N 29°22' W 094°53'0 0.0
2018-Jun-14 10:25N 29°22' W 094°53'0 0.0
2018-Jun-14 09:58N 29°22' W 094°53'0 0.0
2018-Jun-14 09:19N 29°22' W 094°53'0 0.0
2018-Jun-14 08:58N 29°22' W 094°53'0 0.0
2018-Jun-14 08:16N 29°22' W 094°53'0 0.0
2018-Jun-14 07:58N 29°22' W 094°53'0 0.0
2018-Jun-14 07:28N 29°22' W 094°53'0 0.0
2018-Jun-14 06:58N 29°22' W 094°53'0 0.0
2018-Jun-14 06:28N 29°22' W 094°53'0 0.5
2018-Jun-14 05:55N 29°22' W 094°53'1 1.6
2018-Jun-14 05:30N 29°23' W 094°53'2 4.6
2018-Jun-14 05:00N 29°22' W 094°50'2 3.5
2018-Jun-14 04:30N 29°22' W 094°48'3 6.7
2018-Jun-14 04:00N 29°25' W 094°50'4 6.1
2018-Jun-14 03:18N 29°29' W 094°52'2 5.6
2018-Jun-14 03:00N 29°30' W 094°53'3 5.1
2018-Jun-14 02:30N 29°33' W 094°54'2 4.6
2018-Jun-14 02:00N 29°34' W 094°56'2 4.6
2018-Jun-14 01:30N 29°36' W 094°57'2 4.6
2018-Jun-14 00:59N 29°39' W 094°58'2 4.8
2018-Jun-14 00:29N 29°41' W 094°59'  
2018-Jun-09 03:32N 29°46' W 095°06'0 0.0
2018-Jun-09 03:17N 29°46' W 095°06'0 0.0
2018-Jun-08 02:56N 29°46' W 095°06'0 0.0
2018-Jun-08 02:23N 29°46' W 095°06'0 0.0
2018-Jun-07 04:38N 29°46' W 095°06'1 0.0
2018-Jun-06 03:40N 29°46' W 095°05'0 0.9
2018-Jun-06 03:08N 29°46' W 095°06'  
Track history (hours):
 
Tides and Currents Weather Stations Pressure Air Temp Water Temp Dewpoint Dewpoint Depression Visibility Wind Speed Wind Dir Waves Ship Positions

Brian O'daniels

Owner: Florida Marine, LLC, Mandeville, LA. More information available from US FCC via Universal Licensing System and Coast Guard Vessel Documentation Center.

Last reported at 2018-Jun-15 18:19 UTC. Time now 2018-Jun-18 00:15 UTC.
Position N 29°42' W 095°01'.

Length 26 m; draft 3 m.

Type: Towing. MMSI: 367186410.

Date/timePositionNaut miles runAvg speedWind from/ knotsBaromVisibWave heightAir tempDewpointWater temp
2018-Jun-15 18:19N 29°42' W 095°01'2 5.6
2018-Jun-15 18:00N 29°41' W 094°59'3 5.7
2018-Jun-15 17:30N 29°39' W 094°58'4 6.5
2018-Jun-15 16:56N 29°35' W 094°56'14 7.1
2018-Jun-15 15:00N 29°23' W 094°49'2 3.6
2018-Jun-15 14:30N 29°22' W 094°50'2 3.3
2018-Jun-15 14:01N 29°23' W 094°52'0 0.0
2018-Jun-15 13:30N 29°23' W 094°52'0 0.0
2018-Jun-15 13:00N 29°23' W 094°52'0 0.0
2018-Jun-15 12:30N 29°23' W 094°52'0 0.0
2018-Jun-15 12:00N 29°23' W 094°52'0 0.0
2018-Jun-15 11:30N 29°23' W 094°52'0 0.0
2018-Jun-15 11:00N 29°23' W 094°52'0 0.0
2018-Jun-15 10:30N 29°23' W 094°52'0 0.0
2018-Jun-15 09:54N 29°23' W 094°52'0 0.0
2018-Jun-15 09:30N 29°23' W 094°52'0 0.0
2018-Jun-15 09:00N 29°23' W 094°52'0 0.0
2018-Jun-15 08:30N 29°23' W 094°52'0 0.1
2018-Jun-15 07:59N 29°23' W 094°52'1 1.1
2018-Jun-15 07:30N 29°23' W 094°53'1 1.5
2018-Jun-15 06:58N 29°22' W 094°53'0 0.0
2018-Jun-15 06:25N 29°22' W 094°53'0 0.0
2018-Jun-15 05:58N 29°22' W 094°53'0 0.0
2018-Jun-15 05:28N 29°22' W 094°53'0 0.0
2018-Jun-15 04:58N 29°22' W 094°53'0 0.0
2018-Jun-15 04:28N 29°22' W 094°53'0 0.0
2018-Jun-15 03:58N 29°22' W 094°53'0 0.0
2018-Jun-15 03:28N 29°22' W 094°53'0 0.0
2018-Jun-15 02:58N 29°22' W 094°53'0 0.0
2018-Jun-15 02:28N 29°22' W 094°53'0 0.0
2018-Jun-15 01:58N 29°22' W 094°53'0 0.0
2018-Jun-15 01:28N 29°22' W 094°53'0 0.0
2018-Jun-15 00:58N 29°22' W 094°53'0 0.0
2018-Jun-15 00:28N 29°22' W 094°53'0 0.0
2018-Jun-14 23:58N 29°22' W 094°53'0 0.0
2018-Jun-14 23:28N 29°22' W 094°53'0 0.0
2018-Jun-14 22:52N 29°22' W 094°53'0 0.0
2018-Jun-14 22:28N 29°22' W 094°53'0 0.0
2018-Jun-14 21:58N 29°22' W 094°53'0 0.0
2018-Jun-14 21:28N 29°22' W 094°53'0 0.0
2018-Jun-14 20:58N 29°22' W 094°53'0 0.0
2018-Jun-14 20:28N 29°22' W 094°53'0 0.0
2018-Jun-14 19:58N 29°22' W 094°53'0 0.0
2018-Jun-14 19:28N 29°22' W 094°53'0 0.0
2018-Jun-14 18:58N 29°22' W 094°53'0 0.0
2018-Jun-14 18:28N 29°22' W 094°53'0 0.0
2018-Jun-14 17:40N 29°22' W 094°53'0 0.0
2018-Jun-14 17:10N 29°22' W 094°53'0 0.0
2018-Jun-14 16:37N 29°22' W 094°53'0 0.0
2018-Jun-14 16:16N 29°22' W 094°53'0 0.0
2018-Jun-14 15:31N 29°22' W 094°53'0 0.0
2018-Jun-14 15:19N 29°22' W 094°53'0 0.0
2018-Jun-14 14:52N 29°22' W 094°53'0 0.0
2018-Jun-14 14:28N 29°22' W 094°53'0 0.0
2018-Jun-14 13:58N 29°22' W 094°53'0 0.0
2018-Jun-14 13:25N 29°22' W 094°53'0 0.0
2018-Jun-14 12:52N 29°22' W 094°53'0 0.0
2018-Jun-14 12:28N 29°22' W 094°53'0 0.0
2018-Jun-14 11:58N 29°22' W 094°53'0 0.0
2018-Jun-14 11:25N 29°22' W 094°53'0 0.0
2018-Jun-14 10:58N 29°22' W 094°53'0 0.0
2018-Jun-14 10:25N 29°22' W 094°53'0 0.0
2018-Jun-14 09:58N 29°22' W 094°53'0 0.0
2018-Jun-14 09:19N 29°22' W 094°53'0 0.0
2018-Jun-14 08:58N 29°22' W 094°53'0 0.0
2018-Jun-14 08:16N 29°22' W 094°53'0 0.0
2018-Jun-14 07:58N 29°22' W 094°53'0 0.0
2018-Jun-14 07:28N 29°22' W 094°53'0 0.0
2018-Jun-14 06:58N 29°22' W 094°53'0 0.0
2018-Jun-14 06:28N 29°22' W 094°53'0 0.5
2018-Jun-14 05:55N 29°22' W 094°53'1 1.6
2018-Jun-14 05:30N 29°23' W 094°53'2 4.6
2018-Jun-14 05:00N 29°22' W 094°50'2 3.5
2018-Jun-14 04:30N 29°22' W 094°48'3 6.7
2018-Jun-14 04:00N 29°25' W 094°50'4 6.1
2018-Jun-14 03:18N 29°29' W 094°52'2 5.6
2018-Jun-14 03:00N 29°30' W 094°53'3 5.1
2018-Jun-14 02:30N 29°33' W 094°54'2 4.6
2018-Jun-14 02:00N 29°34' W 094°56'2 4.6
2018-Jun-14 01:30N 29°36' W 094°57'2 4.6
2018-Jun-14 00:59N 29°39' W 094°58'2 4.8
2018-Jun-14 00:29N 29°41' W 094°59'  
2018-Jun-09 03:32N 29°46' W 095°06'0 0.0
2018-Jun-09 03:17N 29°46' W 095°06'0 0.0
2018-Jun-08 02:56N 29°46' W 095°06'0 0.0
2018-Jun-08 02:23N 29°46' W 095°06'0 0.0
2018-Jun-07 04:38N 29°46' W 095°06'1 0.0
2018-Jun-06 03:40N 29°46' W 095°05'0 0.9
2018-Jun-06 03:08N 29°46' W 095°06'  

Dump ship's entire track history